sensor_id;sensor_type;location;lat;lon;timestamp;pressure;altitude;pressure_sealevel;temperature;humidity
62946;BME280;52164;52.212;-1.010;2023-02-17T00:02:17;100851.63;;;8.56;87.12
62946;BME280;52164;52.212;-1.010;2023-02-17T00:04:42;100852.78;;;8.61;87.27
62946;BME280;52164;52.212;-1.010;2023-02-17T00:07:07;100852.13;;;8.65;87.51
62946;BME280;52164;52.212;-1.010;2023-02-17T00:09:32;100849.85;;;8.69;87.56
62946;BME280;52164;52.212;-1.010;2023-02-17T00:11:58;100849.71;;;8.72;87.64
62946;BME280;52164;52.212;-1.010;2023-02-17T00:14:23;100844.78;;;8.76;87.69
62946;BME280;52164;52.212;-1.010;2023-02-17T00:16:48;100840.36;;;8.77;87.65
62946;BME280;52164;52.212;-1.010;2023-02-17T00:19:14;100842.34;;;8.80;87.58
62946;BME280;52164;52.212;-1.010;2023-02-17T00:21:55;100839.34;;;8.81;87.53
62946;BME280;52164;52.212;-1.010;2023-02-17T00:24:22;100834.18;;;8.83;87.69
62946;BME280;52164;52.212;-1.010;2023-02-17T00:26:48;100835.25;;;8.83;87.61
62946;BME280;52164;52.212;-1.010;2023-02-17T00:29:13;100835.08;;;8.83;87.79
62946;BME280;52164;52.212;-1.010;2023-02-17T00:31:39;100843.11;;;8.84;87.74
62946;BME280;52164;52.212;-1.010;2023-02-17T00:34:04;100840.61;;;8.85;87.95
62946;BME280;52164;52.212;-1.010;2023-02-17T00:36:30;100838.85;;;8.85;87.86
62946;BME280;52164;52.212;-1.010;2023-02-17T00:38:55;100834.93;;;8.86;87.71
62946;BME280;52164;52.212;-1.010;2023-02-17T00:41:21;100836.38;;;8.87;88.04
62946;BME280;52164;52.212;-1.010;2023-02-17T00:43:47;100836.58;;;8.89;87.92
62946;BME280;52164;52.212;-1.010;2023-02-17T00:46:12;100836.77;;;8.90;87.85
62946;BME280;52164;52.212;-1.010;2023-02-17T00:48:38;100835.00;;;8.91;87.89
62946;BME280;52164;52.212;-1.010;2023-02-17T00:51:04;100832.70;;;8.92;88.11
62946;BME280;52164;52.212;-1.010;2023-02-17T00:53:29;100835.55;;;8.92;88.26
62946;BME280;52164;52.212;-1.010;2023-02-17T00:55:54;100835.73;;;8.92;88.24
62946;BME280;52164;52.212;-1.010;2023-02-17T00:58:20;100831.64;;;8.92;88.43
62946;BME280;52164;52.212;-1.010;2023-02-17T01:00:45;100826.84;;;8.94;88.17
62946;BME280;52164;52.212;-1.010;2023-02-17T01:03:11;100827.75;;;8.95;88.27
62946;BME280;52164;52.212;-1.010;2023-02-17T01:05:40;100826.16;;;8.96;88.40
62946;BME280;52164;52.212;-1.010;2023-02-17T01:08:06;100830.27;;;8.97;88.42
62946;BME280;52164;52.212;-1.010;2023-02-17T01:10:31;100830.80;;;8.97;88.32
62946;BME280;52164;52.212;-1.010;2023-02-17T01:12:56;100828.66;;;8.96;88.59
62946;BME280;52164;52.212;-1.010;2023-02-17T01:15:22;100821.00;;;8.96;88.72
62946;BME280;52164;52.212;-1.010;2023-02-17T01:17:47;100809.98;;;8.96;88.73
62946;BME280;52164;52.212;-1.010;2023-02-17T01:20:12;100810.85;;;8.97;88.66
62946;BME280;52164;52.212;-1.010;2023-02-17T01:22:38;100808.17;;;8.96;88.57
62946;BME280;52164;52.212;-1.010;2023-02-17T01:25:03;100809.42;;;8.95;88.77
62946;BME280;52164;52.212;-1.010;2023-02-17T01:27:29;100810.70;;;8.96;88.85
62946;BME280;52164;52.212;-1.010;2023-02-17T01:29:54;100804.83;;;8.99;89.01
62946;BME280;52164;52.212;-1.010;2023-02-17T01:32:19;100804.50;;;9.01;88.85
62946;BME280;52164;52.212;-1.010;2023-02-17T01:34:45;100807.55;;;9.04;88.71
62946;BME280;52164;52.212;-1.010;2023-02-17T01:37:10;100808.29;;;9.06;88.82
62946;BME280;52164;52.212;-1.010;2023-02-17T01:39:35;100816.33;;;9.07;89.01
62946;BME280;52164;52.212;-1.010;2023-02-17T01:42:01;100811.71;;;9.10;89.05
62946;BME280;52164;52.212;-1.010;2023-02-17T01:44:26;100811.92;;;9.13;89.23
62946;BME280;52164;52.212;-1.010;2023-02-17T01:46:53;100810.55;;;9.16;89.04
62946;BME280;52164;52.212;-1.010;2023-02-17T01:49:21;100809.16;;;9.21;89.30
62946;BME280;52164;52.212;-1.010;2023-02-17T01:51:49;100807.07;;;9.25;89.41
62946;BME280;52164;52.212;-1.010;2023-02-17T01:54:19;100809.60;;;9.29;89.29
62946;BME280;52164;52.212;-1.010;2023-02-17T01:56:46;100812.13;;;9.32;89.23
62946;BME280;52164;52.212;-1.010;2023-02-17T01:59:16;100805.94;;;9.37;89.36
62946;BME280;52164;52.212;-1.010;2023-02-17T02:01:43;100804.19;;;9.40;89.46
62946;BME280;52164;52.212;-1.010;2023-02-17T02:04:10;100806.90;;;9.44;89.52
62946;BME280;52164;52.212;-1.010;2023-02-17T02:06:37;100803.71;;;9.46;89.45
62946;BME280;52164;52.212;-1.010;2023-02-17T02:11:28;100819.61;;;9.51;89.39
62946;BME280;52164;52.212;-1.010;2023-02-17T02:13:53;100821.76;;;9.53;89.34
62946;BME280;52164;52.212;-1.010;2023-02-17T02:16:22;100829.61;;;9.54;88.92
62946;BME280;52164;52.212;-1.010;2023-02-17T02:23:57;100831.75;;;9.53;89.03
62946;BME280;52164;52.212;-1.010;2023-02-17T02:24:03;100830.14;;;9.53;88.90
62946;BME280;52164;52.212;-1.010;2023-02-17T02:33:50;100838.64;;;9.47;88.43
62946;BME280;52164;52.212;-1.010;2023-02-17T02:36:35;100830.05;;;9.44;88.20
62946;BME280;52164;52.212;-1.010;2023-02-17T02:39:03;100824.31;;;9.41;88.13
62946;BME280;52164;52.212;-1.010;2023-02-17T02:41:33;100826.95;;;9.39;88.08
62946;BME280;52164;52.212;-1.010;2023-02-17T02:44:01;100827.65;;;9.36;88.10
62946;BME280;52164;52.212;-1.010;2023-02-17T02:46:27;100825.86;;;9.33;88.05
62946;BME280;52164;52.212;-1.010;2023-02-17T02:48:52;100826.55;;;9.31;87.75
62946;BME280;52164;52.212;-1.010;2023-02-17T02:51:28;100819.23;;;9.30;87.75
62946;BME280;52164;52.212;-1.010;2023-02-17T02:53:56;100824.20;;;9.28;87.79
62946;BME280;52164;52.212;-1.010;2023-02-17T02:56:29;100820.80;;;9.26;87.66
62946;BME280;52164;52.212;-1.010;2023-02-17T02:59:05;100815.08;;;9.25;87.74
62946;BME280;52164;52.212;-1.010;2023-02-17T03:01:49;100815.95;;;9.23;87.74
62946;BME280;52164;52.212;-1.010;2023-02-17T03:06:45;100815.04;;;9.21;87.63
62946;BME280;52164;52.212;-1.010;2023-02-17T03:09:13;100811.10;;;9.19;87.70
62946;BME280;52164;52.212;-1.010;2023-02-17T03:11:40;100805.56;;;9.18;87.51
62946;BME280;52164;52.212;-1.010;2023-02-17T03:14:08;100804.49;;;9.17;87.54
62946;BME280;52164;52.212;-1.010;2023-02-17T03:16:34;100810.91;;;9.17;87.40
62946;BME280;52164;52.212;-1.010;2023-02-17T03:18:59;100801.65;;;9.17;87.44
62946;BME280;52164;52.212;-1.010;2023-02-17T03:21:26;100801.30;;;9.17;87.41
62946;BME280;52164;52.212;-1.010;2023-02-17T03:23:55;100792.04;;;9.18;87.20
62946;BME280;52164;52.212;-1.010;2023-02-17T03:26:21;100783.11;;;9.16;87.13
62946;BME280;52164;52.212;-1.010;2023-02-17T03:28:46;100785.44;;;9.17;87.02
62946;BME280;52164;52.212;-1.010;2023-02-17T03:31:11;100783.10;;;9.15;86.94
62946;BME280;52164;52.212;-1.010;2023-02-17T03:33:36;100785.94;;;9.14;87.09
62946;BME280;52164;52.212;-1.010;2023-02-17T03:36:04;100791.09;;;9.12;86.85
62946;BME280;52164;52.212;-1.010;2023-02-17T03:38:29;100798.55;;;9.12;86.79
62946;BME280;52164;52.212;-1.010;2023-02-17T03:40:54;100799.79;;;9.10;86.88
62946;BME280;52164;52.212;-1.010;2023-02-17T03:43:19;100798.36;;;9.09;86.62
62946;BME280;52164;52.212;-1.010;2023-02-17T03:45:45;100798.35;;;9.09;87.02
62946;BME280;52164;52.212;-1.010;2023-02-17T03:48:10;100805.11;;;9.08;86.87
62946;BME280;52164;52.212;-1.010;2023-02-17T03:50:36;100813.65;;;9.07;86.59
62946;BME280;52164;52.212;-1.010;2023-02-17T03:53:01;100823.08;;;9.07;86.83
62946;BME280;52164;52.212;-1.010;2023-02-17T03:55:26;100824.84;;;9.06;86.69
62946;BME280;52164;52.212;-1.010;2023-02-17T03:57:51;100832.85;;;9.05;86.71
62946;BME280;52164;52.212;-1.010;2023-02-17T04:00:17;100836.93;;;9.03;86.64
62946;BME280;52164;52.212;-1.010;2023-02-17T04:02:42;100833.36;;;9.03;86.76
62946;BME280;52164;52.212;-1.010;2023-02-17T04:05:10;100826.21;;;9.02;86.63
62946;BME280;52164;52.212;-1.010;2023-02-17T04:07:35;100823.91;;;9.01;86.67
62946;BME280;52164;52.212;-1.010;2023-02-17T04:10:00;100818.02;;;9.00;86.54
62946;BME280;52164;52.212;-1.010;2023-02-17T04:12:25;100809.45;;;8.99;86.68
62946;BME280;52164;52.212;-1.010;2023-02-17T04:14:51;100795.20;;;8.96;86.47
62946;BME280;52164;52.212;-1.010;2023-02-17T04:17:16;100796.96;;;8.95;86.56
62946;BME280;52164;52.212;-1.010;2023-02-17T04:19:41;100793.03;;;8.94;86.56
62946;BME280;52164;52.212;-1.010;2023-02-17T04:22:06;100792.67;;;8.93;86.52
62946;BME280;52164;52.212;-1.010;2023-02-17T04:24:33;100802.98;;;8.92;86.57
62946;BME280;52164;52.212;-1.010;2023-02-17T04:26:59;100805.66;;;8.92;86.43
62946;BME280;52164;52.212;-1.010;2023-02-17T04:29:24;100804.04;;;8.90;86.55
62946;BME280;52164;52.212;-1.010;2023-02-17T04:31:49;100801.89;;;8.90;86.46
62946;BME280;52164;52.212;-1.010;2023-02-17T04:34:15;100804.20;;;8.90;86.65
62946;BME280;52164;52.212;-1.010;2023-02-17T04:36:41;100806.15;;;8.89;86.49
62946;BME280;52164;52.212;-1.010;2023-02-17T04:39:07;100803.48;;;8.90;86.50
62946;BME280;52164;52.212;-1.010;2023-02-17T04:41:32;100808.28;;;8.90;86.27
62946;BME280;52164;52.212;-1.010;2023-02-17T04:43:57;100809.53;;;8.89;86.37
62946;BME280;52164;52.212;-1.010;2023-02-17T04:46:22;100806.14;;;8.88;86.25
62946;BME280;52164;52.212;-1.010;2023-02-17T04:48:48;100804.72;;;8.89;86.19
62946;BME280;52164;52.212;-1.010;2023-02-17T04:51:13;100805.07;;;8.89;86.28
62946;BME280;52164;52.212;-1.010;2023-02-17T04:53:38;100807.23;;;8.91;86.23
62946;BME280;52164;52.212;-1.010;2023-02-17T04:56:04;100809.57;;;8.93;86.32
62946;BME280;52164;52.212;-1.010;2023-02-17T04:58:29;100815.83;;;8.94;85.98
62946;BME280;52164;52.212;-1.010;2023-02-17T05:00:57;100811.55;;;8.95;86.02
62946;BME280;52164;52.212;-1.010;2023-02-17T05:03:22;100801.06;;;8.96;85.78
62946;BME280;52164;52.212;-1.010;2023-02-17T05:05:50;100789.68;;;8.97;85.80
62946;BME280;52164;52.212;-1.010;2023-02-17T05:08:15;100786.66;;;8.98;86.03
62946;BME280;52164;52.212;-1.010;2023-02-17T05:10:41;100792.20;;;8.99;85.77
62946;BME280;52164;52.212;-1.010;2023-02-17T05:13:06;100789.72;;;8.99;85.72
62946;BME280;52164;52.212;-1.010;2023-02-17T05:15:31;100776.17;;;8.99;85.89
62946;BME280;52164;52.212;-1.010;2023-02-17T05:17:57;100768.88;;;9.01;85.73
62946;BME280;52164;52.212;-1.010;2023-02-17T05:20:22;100769.09;;;9.03;85.77
62946;BME280;52164;52.212;-1.010;2023-02-17T05:22:47;100770.72;;;9.04;85.57
62946;BME280;52164;52.212;-1.010;2023-02-17T05:25:13;100768.60;;;9.06;85.47
62946;BME280;52164;52.212;-1.010;2023-02-17T05:27:38;100768.77;;;9.07;85.54
62946;BME280;52164;52.212;-1.010;2023-02-17T05:30:03;100771.10;;;9.07;85.47
62946;BME280;52164;52.212;-1.010;2023-02-17T05:32:29;100769.14;;;9.07;85.39
62946;BME280;52164;52.212;-1.010;2023-02-17T05:34:54;100767.00;;;9.07;85.44
62946;BME280;52164;52.212;-1.010;2023-02-17T05:37:23;100759.70;;;9.06;85.38
62946;BME280;52164;52.212;-1.010;2023-02-17T05:39:48;100757.37;;;9.05;85.25
62946;BME280;52164;52.212;-1.010;2023-02-17T05:42:14;100755.92;;;9.05;85.35
62946;BME280;52164;52.212;-1.010;2023-02-17T05:44:39;100757.73;;;9.05;85.52
62946;BME280;52164;52.212;-1.010;2023-02-17T05:47:04;100751.66;;;9.04;85.12
62946;BME280;52164;52.212;-1.010;2023-02-17T05:49:30;100753.43;;;9.04;85.41
62946;BME280;52164;52.212;-1.010;2023-02-17T05:51:55;100757.89;;;9.04;85.32
62946;BME280;52164;52.212;-1.010;2023-02-17T05:54:20;100758.77;;;9.02;85.21
62946;BME280;52164;52.212;-1.010;2023-02-17T05:56:45;100755.17;;;9.01;85.47
62946;BME280;52164;52.212;-1.010;2023-02-17T05:59:11;100766.02;;;8.99;85.44
62946;BME280;52164;52.212;-1.010;2023-02-17T06:01:36;100762.46;;;8.98;85.09
62946;BME280;52164;52.212;-1.010;2023-02-17T06:04:02;100760.84;;;8.97;85.15
62946;BME280;52164;52.212;-1.010;2023-02-17T06:06:27;100757.99;;;8.97;85.22
62946;BME280;52164;52.212;-1.010;2023-02-17T06:08:52;100751.23;;;8.96;85.25
62946;BME280;52164;52.212;-1.010;2023-02-17T06:11:18;100759.75;;;8.96;85.22
62946;BME280;52164;52.212;-1.010;2023-02-17T06:13:43;100758.88;;;8.96;85.42
62946;BME280;52164;52.212;-1.010;2023-02-17T06:16:08;100762.09;;;8.97;85.36
62946;BME280;52164;52.212;-1.010;2023-02-17T06:18:34;100757.48;;;8.99;85.27
62946;BME280;52164;52.212;-1.010;2023-02-17T06:20:59;100763.00;;;9.00;85.39
62946;BME280;52164;52.212;-1.010;2023-02-17T06:23:25;100763.20;;;9.02;85.55
62946;BME280;52164;52.212;-1.010;2023-02-17T06:25:50;100758.77;;;9.03;85.32
62946;BME280;52164;52.212;-1.010;2023-02-17T06:28:16;100758.42;;;9.04;85.46
62946;BME280;52164;52.212;-1.010;2023-02-17T06:30:41;100761.09;;;9.04;85.30
62946;BME280;52164;52.212;-1.010;2023-02-17T06:33:06;100762.34;;;9.04;85.29
62946;BME280;52164;52.212;-1.010;2023-02-17T06:35:31;100757.17;;;9.04;85.46
62946;BME280;52164;52.212;-1.010;2023-02-17T06:37:58;100756.10;;;9.04;85.48
62946;BME280;52164;52.212;-1.010;2023-02-17T06:40:23;100760.39;;;9.04;85.42
62946;BME280;52164;52.212;-1.010;2023-02-17T06:42:48;100763.95;;;9.05;85.30
62946;BME280;52164;52.212;-1.010;2023-02-17T06:45:14;100765.20;;;9.06;85.49
62946;BME280;52164;52.212;-1.010;2023-02-17T06:47:39;100775.91;;;9.07;85.43
62946;BME280;52164;52.212;-1.010;2023-02-17T06:50:05;100797.62;;;9.07;85.41
62946;BME280;52164;52.212;-1.010;2023-02-17T06:52:30;100802.45;;;9.10;85.51
62946;BME280;52164;52.212;-1.010;2023-02-17T06:54:56;100807.11;;;9.14;85.56
62946;BME280;52164;52.212;-1.010;2023-02-17T06:57:21;100815.36;;;9.17;85.67
62946;BME280;52164;52.212;-1.010;2023-02-17T06:59:46;100821.27;;;9.22;85.60
62946;BME280;52164;52.212;-1.010;2023-02-17T07:02:12;100818.30;;;9.26;85.56
62946;BME280;52164;52.212;-1.010;2023-02-17T07:04:38;100815.13;;;9.30;85.45
62946;BME280;52164;52.212;-1.010;2023-02-17T07:07:07;100812.67;;;9.34;85.61
62946;BME280;52164;52.212;-1.010;2023-02-17T07:09:33;100803.98;;;9.37;85.54
62946;BME280;52164;52.212;-1.010;2023-02-17T07:11:59;100796.35;;;9.42;85.48
62946;BME280;52164;52.212;-1.010;2023-02-17T07:14:24;100803.52;;;9.45;85.51
62946;BME280;52164;52.212;-1.010;2023-02-17T07:16:49;100809.42;;;9.48;85.61
62946;BME280;52164;52.212;-1.010;2023-02-17T07:19:15;100816.75;;;9.51;85.34
62946;BME280;52164;52.212;-1.010;2023-02-17T07:21:40;100823.39;;;9.56;85.24
62946;BME280;52164;52.212;-1.010;2023-02-17T07:24:05;100819.87;;;9.59;85.33
62946;BME280;52164;52.212;-1.010;2023-02-17T07:26:33;100820.60;;;9.63;85.16
62946;BME280;52164;52.212;-1.010;2023-02-17T07:28:58;100819.55;;;9.66;85.16
62946;BME280;52164;52.212;-1.010;2023-02-17T07:31:25;100814.60;;;9.69;84.95
62946;BME280;52164;52.212;-1.010;2023-02-17T07:33:51;100813.20;;;9.73;85.28
62946;BME280;52164;52.212;-1.010;2023-02-17T07:36:16;100810.73;;;9.76;85.17
62946;BME280;52164;52.212;-1.010;2023-02-17T07:38:45;100808.64;;;9.79;85.02
62946;BME280;52164;52.212;-1.010;2023-02-17T07:41:12;100808.11;;;9.82;84.78
62946;BME280;52164;52.212;-1.010;2023-02-17T07:43:37;100806.70;;;9.85;84.81
62946;BME280;52164;52.212;-1.010;2023-02-17T07:46:03;100809.77;;;9.89;84.90
62946;BME280;52164;52.212;-1.010;2023-02-17T07:48:29;100810.86;;;9.92;84.96
62946;BME280;52164;52.212;-1.010;2023-02-17T07:50:55;100811.05;;;9.95;84.82
62946;BME280;52164;52.212;-1.010;2023-02-17T07:53:20;100818.75;;;9.98;84.69
62946;BME280;52164;52.212;-1.010;2023-02-17T07:55:46;100818.23;;;10.01;84.63
62946;BME280;52164;52.212;-1.010;2023-02-17T07:58:11;100811.30;;;10.05;84.57
62946;BME280;52164;52.212;-1.010;2023-02-17T08:00:36;100811.69;;;10.09;84.28
62946;BME280;52164;52.212;-1.010;2023-02-17T08:03:01;100812.60;;;10.12;84.24
62946;BME280;52164;52.212;-1.010;2023-02-17T08:05:27;100812.63;;;10.14;84.00
62946;BME280;52164;52.212;-1.010;2023-02-17T08:07:52;100817.08;;;10.16;84.17
62946;BME280;52164;52.212;-1.010;2023-02-17T08:10:38;100815.66;;;10.17;83.93
62946;BME280;52164;52.212;-1.010;2023-02-17T08:13:25;100821.94;;;10.20;83.77
62946;BME280;52164;52.212;-1.010;2023-02-17T08:15:50;100820.34;;;10.23;83.78
62946;BME280;52164;52.212;-1.010;2023-02-17T08:18:16;100820.35;;;10.25;83.60
62946;BME280;52164;52.212;-1.010;2023-02-17T08:20:41;100815.92;;;10.27;83.50
62946;BME280;52164;52.212;-1.010;2023-02-17T08:23:06;100815.22;;;10.29;83.57
62946;BME280;52164;52.212;-1.010;2023-02-17T08:25:32;100810.05;;;10.32;83.61
62946;BME280;52164;52.212;-1.010;2023-02-17T08:27:58;100814.17;;;10.33;83.09
62946;BME280;52164;52.212;-1.010;2023-02-17T08:30:24;100810.45;;;10.35;83.32
62946;BME280;52164;52.212;-1.010;2023-02-17T08:32:49;100799.60;;;10.38;83.35
62946;BME280;52164;52.212;-1.010;2023-02-17T08:35:15;100791.95;;;10.43;83.20
62946;BME280;52164;52.212;-1.010;2023-02-17T08:37:43;100793.93;;;10.48;82.96
62946;BME280;52164;52.212;-1.010;2023-02-17T08:40:08;100808.95;;;10.54;82.94
62946;BME280;52164;52.212;-1.010;2023-02-17T08:42:34;100799.16;;;10.60;82.90
62946;BME280;52164;52.212;-1.010;2023-02-17T08:44:59;100794.71;;;10.64;82.78
62946;BME280;52164;52.212;-1.010;2023-02-17T08:47:24;100800.81;;;10.70;82.62
62946;BME280;52164;52.212;-1.010;2023-02-17T08:49:49;100798.52;;;10.76;82.74
62946;BME280;52164;52.212;-1.010;2023-02-17T08:52:15;100805.33;;;10.83;82.56
62946;BME280;52164;52.212;-1.010;2023-02-17T08:54:40;100805.17;;;10.91;82.25
62946;BME280;52164;52.212;-1.010;2023-02-17T08:57:05;100808.42;;;10.98;82.11
62946;BME280;52164;52.212;-1.010;2023-02-17T08:59:30;100793.61;;;11.03;81.83
62946;BME280;52164;52.212;-1.010;2023-02-17T09:01:56;100789.69;;;11.09;81.79
62946;BME280;52164;52.212;-1.010;2023-02-17T09:04:21;100793.27;;;11.16;81.51
62946;BME280;52164;52.212;-1.010;2023-02-17T09:06:48;100793.10;;;11.21;81.40
62946;BME280;52164;52.212;-1.010;2023-02-17T09:09:17;100799.36;;;11.22;81.06
62946;BME280;52164;52.212;-1.010;2023-02-17T09:11:43;100799.90;;;11.25;81.06
62946;BME280;52164;52.212;-1.010;2023-02-17T09:14:08;100795.98;;;11.28;80.90
62946;BME280;52164;52.212;-1.010;2023-02-17T09:16:33;100794.92;;;11.32;80.64
62946;BME280;52164;52.212;-1.010;2023-02-17T09:18:59;100789.20;;;11.36;80.39
62946;BME280;52164;52.212;-1.010;2023-02-17T09:21:24;100801.90;;;11.39;80.39
62946;BME280;52164;52.212;-1.010;2023-02-17T09:23:50;100797.78;;;11.44;80.38
62946;BME280;52164;52.212;-1.010;2023-02-17T09:26:16;100794.39;;;11.50;80.23
62946;BME280;52164;52.212;-1.010;2023-02-17T09:28:41;100811.39;;;11.57;80.07
62946;BME280;52164;52.212;-1.010;2023-02-17T09:31:08;100810.85;;;11.63;79.84
62946;BME280;52164;52.212;-1.010;2023-02-17T09:33:33;100814.77;;;11.69;79.74
62946;BME280;52164;52.212;-1.010;2023-02-17T09:35:59;100823.37;;;11.75;79.59
62946;BME280;52164;52.212;-1.010;2023-02-17T09:38:27;100823.91;;;11.81;79.46
62946;BME280;52164;52.212;-1.010;2023-02-17T09:40:53;100830.15;;;11.88;79.27
62946;BME280;52164;52.212;-1.010;2023-02-17T09:43:21;100833.73;;;11.91;79.23
62946;BME280;52164;52.212;-1.010;2023-02-17T09:45:49;100831.80;;;11.95;78.88
62946;BME280;52164;52.212;-1.010;2023-02-17T09:48:17;100840.20;;;12.01;78.80
62946;BME280;52164;52.212;-1.010;2023-02-17T09:50:47;100833.05;;;12.01;78.64
62946;BME280;52164;52.212;-1.010;2023-02-17T09:53:17;100835.73;;;12.03;78.75
62946;BME280;52164;52.212;-1.010;2023-02-17T09:55:48;100829.29;;;12.08;78.38
62946;BME280;52164;52.212;-1.010;2023-02-17T09:58:17;100847.16;;;12.16;78.19
62946;BME280;52164;52.212;-1.010;2023-02-17T10:00:46;100827.83;;;12.25;78.02
62946;BME280;52164;52.212;-1.010;2023-02-17T10:03:28;100830.30;;;12.32;77.80
62946;BME280;52164;52.212;-1.010;2023-02-17T10:06:04;100834.60;;;12.38;77.35
62946;BME280;52164;52.212;-1.010;2023-02-17T10:08:34;100824.21;;;12.42;77.36
62946;BME280;52164;52.212;-1.010;2023-02-17T10:11:07;100838.36;;;12.40;77.51
62946;BME280;52164;52.212;-1.010;2023-02-17T10:13:34;100858.03;;;12.41;77.24
62946;BME280;52164;52.212;-1.010;2023-02-17T10:16:04;100841.39;;;12.42;77.12
62946;BME280;52164;52.212;-1.010;2023-02-17T10:18:35;100844.79;;;12.45;77.19
62946;BME280;52164;52.212;-1.010;2023-02-17T10:21:17;100840.30;;;12.45;77.01
62946;BME280;52164;52.212;-1.010;2023-02-17T10:23:46;100827.42;;;12.45;77.03
62946;BME280;52164;52.212;-1.010;2023-02-17T10:27:21;100833.50;;;12.49;76.93
62946;BME280;52164;52.212;-1.010;2023-02-17T10:33:56;100835.05;;;12.68;76.64
62946;BME280;52164;52.212;-1.010;2023-02-17T10:38:52;100842.02;;;12.76;76.36
62946;BME280;52164;52.212;-1.010;2023-02-17T10:41:20;100832.67;;;12.80;76.00
62946;BME280;52164;52.212;-1.010;2023-02-17T10:43:46;100831.41;;;12.83;76.21
62946;BME280;52164;52.212;-1.010;2023-02-17T10:46:13;100823.14;;;12.90;76.32
62946;BME280;52164;52.212;-1.010;2023-02-17T10:48:42;100833.48;;;13.00;76.07
62946;BME280;52164;52.212;-1.010;2023-02-17T10:51:10;100833.81;;;13.07;75.85
62946;BME280;52164;52.212;-1.010;2023-02-17T10:53:38;100833.77;;;13.14;75.19
62946;BME280;52164;52.212;-1.010;2023-02-17T10:56:07;100838.05;;;13.19;75.28
62946;BME280;52164;52.212;-1.010;2023-02-17T10:58:38;100844.83;;;13.24;74.82
62946;BME280;52164;52.212;-1.010;2023-02-17T11:01:05;100839.98;;;13.26;74.66
62946;BME280;52164;52.212;-1.010;2023-02-17T11:03:32;100848.55;;;13.31;74.91
62946;BME280;52164;52.212;-1.010;2023-02-17T11:05:58;100855.00;;;13.38;74.69
62946;BME280;52164;52.212;-1.010;2023-02-17T11:08:42;100857.29;;;13.44;74.56
62946;BME280;52164;52.212;-1.010;2023-02-17T11:11:18;100859.39;;;13.52;74.62
62946;BME280;52164;52.212;-1.010;2023-02-17T11:14:17;100875.30;;;13.60;74.52
62946;BME280;52164;52.212;-1.010;2023-02-17T11:16:45;100883.88;;;13.65;73.68
62946;BME280;52164;52.212;-1.010;2023-02-17T11:19:28;100875.56;;;13.72;73.95
62946;BME280;52164;52.212;-1.010;2023-02-17T11:21:54;100880.87;;;13.84;73.55
62946;BME280;52164;52.212;-1.010;2023-02-17T11:24:20;100866.84;;;13.89;73.61
62946;BME280;52164;52.212;-1.010;2023-02-17T11:27:23;100867.83;;;13.98;72.98
62946;BME280;52164;52.212;-1.010;2023-02-17T11:29:31;100878.40;;;14.03;73.29
62946;BME280;52164;52.212;-1.010;2023-02-17T11:32:00;100886.80;;;14.07;72.53
62946;BME280;52164;52.212;-1.010;2023-02-17T11:34:27;100887.72;;;14.04;72.39
62946;BME280;52164;52.212;-1.010;2023-02-17T11:36:58;100890.39;;;14.06;72.77
62946;BME280;52164;52.212;-1.010;2023-02-17T11:39:23;100899.13;;;14.12;72.43
62946;BME280;52164;52.212;-1.010;2023-02-17T11:41:49;100896.26;;;14.11;72.01
62946;BME280;52164;52.212;-1.010;2023-02-17T11:44:22;100904.70;;;14.11;72.10
62946;BME280;52164;52.212;-1.010;2023-02-17T11:46:51;100901.08;;;14.15;72.11
62946;BME280;52164;52.212;-1.010;2023-02-17T11:49:28;100909.46;;;14.21;71.79
62946;BME280;52164;52.212;-1.010;2023-02-17T11:52:00;100917.67;;;14.25;71.60
62946;BME280;52164;52.212;-1.010;2023-02-17T11:57:10;100915.35;;;14.25;71.56
62946;BME280;52164;52.212;-1.010;2023-02-17T11:59:46;100909.40;;;14.29;71.38
62946;BME280;52164;52.212;-1.010;2023-02-17T12:02:16;100909.92;;;14.30;71.46
62946;BME280;52164;52.212;-1.010;2023-02-17T12:04:51;100910.78;;;14.34;71.29
62946;BME280;52164;52.212;-1.010;2023-02-17T12:09:54;100929.83;;;14.35;71.38
62946;BME280;52164;52.212;-1.010;2023-02-17T12:15:20;100942.36;;;14.36;71.19
62946;BME280;52164;52.212;-1.010;2023-02-17T12:15:46;100938.61;;;14.35;71.31
62946;BME280;52164;52.212;-1.010;2023-02-17T12:20:49;100949.25;;;14.50;71.13
62946;BME280;52164;52.212;-1.010;2023-02-17T12:23:11;100947.73;;;14.58;70.95
62946;BME280;52164;52.212;-1.010;2023-02-17T12:25:48;100949.31;;;14.67;70.78
62946;BME280;52164;52.212;-1.010;2023-02-17T12:33:30;100961.61;;;14.75;70.15
62946;BME280;52164;52.212;-1.010;2023-02-17T12:36:01;100963.41;;;14.74;69.45
62946;BME280;52164;52.212;-1.010;2023-02-17T12:38:31;100968.09;;;14.75;68.96
62946;BME280;52164;52.212;-1.010;2023-02-17T12:40:59;100984.14;;;14.87;68.75
62946;BME280;52164;52.212;-1.010;2023-02-17T12:43:31;100998.77;;;14.96;67.92
62946;BME280;52164;52.212;-1.010;2023-02-17T12:46:01;100999.84;;;14.98;67.41
62946;BME280;52164;52.212;-1.010;2023-02-17T12:50:59;101003.75;;;15.03;67.05
62946;BME280;52164;52.212;-1.010;2023-02-17T12:55:54;101012.53;;;15.05;66.98
62946;BME280;52164;52.212;-1.010;2023-02-17T12:58:22;101016.33;;;15.03;66.28
62946;BME280;52164;52.212;-1.010;2023-02-17T13:00:51;101019.02;;;15.03;65.95
62946;BME280;52164;52.212;-1.010;2023-02-17T13:03:19;101016.14;;;15.03;65.82
62946;BME280;52164;52.212;-1.010;2023-02-17T13:06:01;101019.23;;;14.99;65.56
62946;BME280;52164;52.212;-1.010;2023-02-17T13:08:30;101017.30;;;14.96;66.19
62946;BME280;52164;52.212;-1.010;2023-02-17T13:11:01;101010.66;;;14.93;65.75
62946;BME280;52164;52.212;-1.010;2023-02-17T13:13:31;101016.59;;;14.94;65.91
62946;BME280;52164;52.212;-1.010;2023-02-17T13:16:02;101018.04;;;14.93;65.96
62946;BME280;52164;52.212;-1.010;2023-02-17T13:18:29;101016.96;;;14.93;66.06
62946;BME280;52164;52.212;-1.010;2023-02-17T13:23:26;101030.09;;;15.10;65.00
62946;BME280;52164;52.212;-1.010;2023-02-17T13:28:38;101022.94;;;15.23;64.32
62946;BME280;52164;52.212;-1.010;2023-02-17T13:31:08;101021.34;;;15.21;64.36
62946;BME280;52164;52.212;-1.010;2023-02-17T13:33:38;101027.11;;;15.20;64.11